Time;durP1;ratioP1;P1;durP2;ratioP2;P2;SDS_P1;SDS_P2;PMS_P1;PMS_P2;Temp;Humidity;BMP_temperature;BMP_pressure;BME280_temperature;BME280_humidity;BME280_pressure;Samples;Min_cycle;Max_cycle;Signal;HPM_P1;HPM_P2
2022/01/04 00:00:50;;;;;;;2.40;1.37;;;9.80;59.20;;;;;;5039350;28;46444;-68
2022/01/04 00:03:16;;;;;;;3.10;1.40;;;9.80;59.30;;;;;;5014977;28;46353;-68
2022/01/04 00:05:42;;;;;;;2.03;1.10;;;9.80;59.30;;;;;;5022317;28;46517;-69
2022/01/04 00:08:11;;;;;;;3.60;1.20;;;9.90;59.30;;;;;;5022031;28;47916;-68
2022/01/04 00:10:37;;;;;;;2.47;1.10;;;9.90;59.30;;;;;;5021810;28;46497;-68
2022/01/04 00:15:54;;;;;;;1.93;1.10;;;10.00;58.10;;;;;;5020674;28;46373;-68
2022/01/04 00:18:20;;;;;;;3.67;1.20;;;10.00;58.30;;;;;;5007798;28;49091;-68
2022/01/04 00:20:47;;;;;;;3.10;1.63;;;10.00;58.30;;;;;;5021141;28;45816;-68
2022/01/04 00:23:13;;;;;;;3.53;1.17;;;10.00;58.30;;;;;;5023157;28;46376;-68
2022/01/04 00:25:39;;;;;;;1.87;1.03;;;10.00;58.30;;;;;;5021935;28;46524;-68
2022/01/04 00:28:07;;;;;;;2.70;1.20;;;10.00;58.30;;;;;;5021705;28;46312;-68
2022/01/04 00:30:35;;;;;;;4.67;1.50;;;10.00;58.40;;;;;;5021805;28;46461;-68
2022/01/04 00:33:03;;;;;;;3.20;1.30;;;10.00;59.70;;;;;;5021647;28;46307;-68
2022/01/04 00:35:29;;;;;;;5.07;1.87;;;10.00;58.50;;;;;;5021872;28;46308;-67
2022/01/04 00:37:55;;;;;;;2.43;1.00;;;10.00;58.60;;;;;;5015901;28;47921;-68
2022/01/04 00:40:23;;;;;;;3.63;0.90;;;10.00;58.60;;;;;;5018016;28;46463;-66
2022/01/04 00:42:49;;;;;;;4.80;1.00;;;10.10;58.60;;;;;;5021174;28;46341;-68
2022/01/04 00:45:15;;;;;;;3.07;1.10;;;10.00;58.40;;;;;;5021797;28;46367;-68
2022/01/04 00:47:44;;;;;;;2.10;1.10;;;10.00;58.30;;;;;;5021088;28;48903;-67
2022/01/04 00:50:09;;;;;;;4.77;1.20;;;10.10;58.40;;;;;;5021165;28;46309;-68
2022/01/04 00:52:35;;;;;;;3.27;0.93;;;10.10;58.30;;;;;;5021017;28;46496;-68
2022/01/04 00:55:02;;;;;;;2.00;1.10;;;10.10;58.40;;;;;;5021985;28;46330;-68
2022/01/04 00:57:27;;;;;;;4.33;1.00;;;10.10;58.30;;;;;;5020682;28;47762;-68
2022/01/04 00:59:53;;;;;;;1.40;0.90;;;10.20;58.20;;;;;;5021239;28;46398;-66
2022/01/04 01:02:19;;;;;;;1.60;0.90;;;10.20;58.10;;;;;;5021181;28;46402;-68
2022/01/04 01:04:44;;;;;;;4.30;1.10;;;10.20;58.20;;;;;;5020876;28;46346;-67
2022/01/04 01:07:10;;;;;;;3.23;1.73;;;10.20;58.00;;;;;;5020789;28;48697;-66
2022/01/04 01:09:45;;;;;;;6.20;1.67;;;10.20;58.00;;;;;;5021085;28;46343;-67
2022/01/04 01:12:14;;;;;;;1.97;1.17;;;10.30;58.00;;;;;;5020558;28;46335;-68
2022/01/04 01:14:42;;;;;;;2.10;0.93;;;10.30;57.90;;;;;;5021370;28;46546;-67
2022/01/04 01:17:08;;;;;;;3.87;1.00;;;10.30;57.90;;;;;;5018186;28;46536;-68
2022/01/04 01:19:36;;;;;;;2.50;1.07;;;10.30;57.60;;;;;;5020979;28;46311;-68
2022/01/04 01:22:01;;;;;;;2.40;0.90;;;10.30;57.50;;;;;;5020252;28;45862;-68
2022/01/04 01:24:27;;;;;;;3.30;1.27;;;10.30;57.60;;;;;;5022495;28;46481;-67
2022/01/04 01:26:53;;;;;;;6.13;1.20;;;10.40;57.50;;;;;;5020923;28;47629;-67
2022/01/04 01:29:18;;;;;;;5.93;1.03;;;10.40;57.40;;;;;;5022073;28;46424;-68
2022/01/04 01:31:47;;;;;;;1.87;0.80;;;10.40;57.50;;;;;;5020047;28;46323;-68
2022/01/04 01:34:12;;;;;;;2.33;1.03;;;10.40;57.30;;;;;;5021298;28;46605;-68
2022/01/04 01:36:38;;;;;;;2.30;1.03;;;10.40;57.20;;;;;;5020869;28;46546;-67
2022/01/04 01:39:03;;;;;;;4.93;0.90;;;10.40;57.20;;;;;;5021787;28;46390;-68
2022/01/04 01:41:29;;;;;;;2.53;1.30;;;10.30;57.10;;;;;;5020606;28;46486;-68
2022/01/04 01:43:56;;;;;;;2.33;1.30;;;10.40;57.20;;;;;;5021261;28;46405;-68
2022/01/04 01:46:22;;;;;;;6.23;1.30;;;10.30;57.20;;;;;;5019838;28;48184;-67
2022/01/04 01:48:47;;;;;;;4.93;1.63;;;10.30;57.20;;;;;;5020780;28;46409;-67
2022/01/04 01:51:16;;;;;;;2.90;1.10;;;10.30;57.30;;;;;;5021018;28;46243;-68
2022/01/04 01:53:43;;;;;;;3.07;1.40;;;10.30;57.30;;;;;;5020332;28;46620;-68
2022/01/04 01:56:08;;;;;;;5.33;1.20;;;10.30;57.30;;;;;;5027592;28;48185;-68
2022/01/04 01:58:36;;;;;;;4.33;1.20;;;10.20;57.30;;;;;;5019975;28;46596;-68
2022/01/04 02:01:03;;;;;;;3.07;1.30;;;10.20;57.30;;;;;;5020577;28;45855;-67
2022/01/04 02:03:28;;;;;;;5.50;1.00;;;10.20;57.10;;;;;;5022036;28;46510;-67
2022/01/04 02:05:54;;;;;;;5.30;1.20;;;10.20;57.10;;;;;;5021782;28;47088;-67
2022/01/04 02:08:21;;;;;;;3.43;1.30;;;10.30;57.00;;;;;;5034733;28;46679;-67
2022/01/04 02:10:47;;;;;;;2.70;1.33;;;10.30;56.90;;;;;;5020520;28;46330;-68
2022/01/04 02:13:13;;;;;;;5.93;1.53;;;10.30;56.70;;;;;;5020153;28;46571;-68
2022/01/04 02:15:39;;;;;;;5.33;1.70;;;10.30;56.60;;;;;;5028020;28;48953;-68
2022/01/04 02:18:06;;;;;;;2.30;1.37;;;10.30;56.60;;;;;;5019935;28;46374;-68
2022/01/04 02:20:31;;;;;;;3.60;1.70;;;10.40;57.70;;;;;;5020298;28;46234;-66
2022/01/04 02:22:57;;;;;;;2.90;1.30;;;10.30;56.30;;;;;;5021952;28;46561;-68
2022/01/04 02:25:23;;;;;;;2.33;1.17;;;10.40;56.40;;;;;;5020008;28;46515;-67
2022/01/04 02:27:49;;;;;;;1.70;0.90;;;10.40;56.30;;;;;;5020119;28;46479;-67
2022/01/04 02:30:17;;;;;;;2.17;1.10;;;10.40;56.20;;;;;;5019394;28;46599;-67
2022/01/04 02:32:45;;;;;;;1.93;1.20;;;10.40;56.10;;;;;;5020363;28;46642;-66
2022/01/04 02:35:12;;;;;;;2.50;1.10;;;10.40;56.20;;;;;;5026048;28;48072;-68
2022/01/04 02:37:38;;;;;;;3.90;1.53;;;10.30;56.30;;;;;;5020130;28;46179;-67
2022/01/04 02:40:05;;;;;;;3.80;1.20;;;10.20;56.40;;;;;;5020189;28;46416;-67
2022/01/04 02:42:30;;;;;;;3.33;1.10;;;10.20;56.70;;;;;;5020023;28;46505;-67
2022/01/04 02:45:00;;;;;;;2.20;1.03;;;10.20;56.60;;;;;;5022070;28;48982;-67
2022/01/04 02:47:27;;;;;;;2.80;0.97;;;10.20;56.80;;;;;;5022979;28;46393;-68
2022/01/04 02:49:52;;;;;;;5.03;1.33;;;10.20;56.40;;;;;;5040229;28;46399;-67
2022/01/04 02:52:18;;;;;;;2.97;1.30;;;10.30;56.50;;;;;;5023256;28;46718;-68
2022/01/04 02:54:44;;;;;;;1.43;0.83;;;10.30;56.60;;;;;;5024561;28;46450;-67
2022/01/04 02:57:10;;;;;;;3.00;1.10;;;10.30;56.50;;;;;;5022626;28;46474;-68
2022/01/04 02:59:35;;;;;;;2.97;1.27;;;10.20;56.60;;;;;;5023219;28;46568;-67
2022/01/04 03:02:01;;;;;;;2.33;1.10;;;10.30;56.50;;;;;;5023154;28;46451;-67
2022/01/04 03:04:27;;;;;;;2.03;1.20;;;10.30;56.40;;;;;;5023081;28;47918;-67
2022/01/04 03:06:52;;;;;;;3.87;1.17;;;10.30;56.30;;;;;;5023807;28;46360;-67
2022/01/04 03:09:18;;;;;;;2.80;1.00;;;10.30;56.20;;;;;;5022078;28;46475;-67
2022/01/04 03:11:44;;;;;;;1.73;1.00;;;10.40;56.30;;;;;;5018683;28;46695;-68
2022/01/04 03:14:10;;;;;;;3.23;1.20;;;10.40;56.30;;;;;;5022003;28;46295;-68
2022/01/04 03:16:35;;;;;;;10.63;1.10;;;10.40;56.10;;;;;;5019809;28;46504;-67
2022/01/04 03:19:09;;;;;;;1.97;1.00;;;10.40;56.10;;;;;;5023218;28;46279;-67
2022/01/04 03:21:43;;;;;;;2.80;1.33;;;10.40;56.00;;;;;;5016039;28;46417;-68
2022/01/04 03:24:11;;;;;;;2.63;1.00;;;10.50;56.00;;;;;;5022380;28;48067;-67
2022/01/04 03:26:37;;;;;;;2.13;1.00;;;10.50;55.90;;;;;;5024108;28;46374;-68
2022/01/04 03:29:05;;;;;;;2.07;1.30;;;10.50;55.70;;;;;;5023206;28;46331;-67
2022/01/04 03:31:32;;;;;;;2.03;0.97;;;10.60;55.80;;;;;;5038683;28;46651;-68
2022/01/04 03:33:58;;;;;;;2.30;0.90;;;10.60;55.60;;;;;;5023063;28;47906;-68
2022/01/04 03:36:24;;;;;;;2.13;0.90;;;10.60;55.50;;;;;;5023059;28;46402;-67
2022/01/04 03:38:52;;;;;;;2.73;1.00;;;10.60;55.40;;;;;;5022300;28;46424;-67
2022/01/04 03:41:19;;;;;;;2.77;1.20;;;10.70;55.30;;;;;;5022610;28;46317;-68
2022/01/04 03:43:45;;;;;;;2.10;1.10;;;10.70;55.10;;;;;;5022184;28;48950;-67
2022/01/04 03:46:11;;;;;;;3.87;1.10;;;10.80;55.00;;;;;;5036490;28;46516;-67
2022/01/04 03:48:37;;;;;;;1.90;1.00;;;10.80;55.00;;;;;;5022264;28;46496;-67
2022/01/04 03:51:04;;;;;;;2.40;1.10;;;10.90;54.90;;;;;;5021982;28;46667;-67
2022/01/04 03:53:30;;;;;;;2.60;0.90;;;10.90;54.80;;;;;;5021823;28;47782;-67
2022/01/04 03:55:56;;;;;;;1.93;1.00;;;10.90;54.50;;;;;;5022039;28;45776;-68
2022/01/04 03:58:22;;;;;;;4.00;1.20;;;10.90;54.30;;;;;;5023592;28;46386;-68
2022/01/04 04:00:48;;;;;;;2.40;1.00;;;11.00;54.50;;;;;;5022858;28;46443;-68
2022/01/04 04:03:15;;;;;;;4.10;1.10;;;11.00;54.60;;;;;;5022120;28;47381;-67
2022/01/04 04:05:40;;;;;;;1.80;1.07;;;11.00;54.60;;;;;;5022146;28;46524;-68
2022/01/04 04:08:06;;;;;;;2.60;1.10;;;10.90;54.70;;;;;;5021332;28;46658;-66
2022/01/04 04:10:32;;;;;;;1.80;1.10;;;10.90;54.90;;;;;;5023769;28;45946;-69
2022/01/04 04:13:00;;;;;;;4.50;1.43;;;10.90;54.80;;;;;;5024613;28;48117;-67
2022/01/04 04:15:26;;;;;;;2.70;1.20;;;10.90;54.90;;;;;;5024283;28;46353;-68
2022/01/04 04:17:52;;;;;;;3.93;1.10;;;10.90;55.00;;;;;;5024128;28;46349;-68
2022/01/04 04:20:18;;;;;;;5.37;1.30;;;10.90;55.20;;;;;;5024755;28;46548;-68
2022/01/04 04:22:43;;;;;;;3.23;1.20;;;10.80;55.40;;;;;;5021631;28;48152;-67
2022/01/04 04:25:09;;;;;;;2.27;1.20;;;10.80;55.50;;;;;;5023683;28;46325;-68
2022/01/04 04:27:35;;;;;;;3.00;1.07;;;10.80;55.60;;;;;;5023242;28;45822;-69
2022/01/04 04:30:01;;;;;;;4.10;1.10;;;10.80;55.60;;;;;;5022983;28;46456;-69
2022/01/04 04:32:30;;;;;;;4.47;1.40;;;10.80;55.90;;;;;;5017659;28;48773;-68
2022/01/04 04:34:55;;;;;;;1.90;1.03;;;10.80;55.80;;;;;;5021875;28;46428;-68
2022/01/04 04:37:21;;;;;;;3.00;1.10;;;10.80;55.90;;;;;;5036826;28;46215;-68
2022/01/04 04:39:47;;;;;;;1.93;1.10;;;10.70;55.90;;;;;;5022396;28;46296;-68
2022/01/04 04:42:13;;;;;;;2.93;1.20;;;10.80;56.10;;;;;;5021815;28;49011;-66
2022/01/04 04:44:40;;;;;;;3.17;1.30;;;10.80;56.00;;;;;;5022430;28;46534;-68
2022/01/04 04:47:06;;;;;;;7.80;1.10;;;10.80;55.90;;;;;;5021930;28;46260;-68
2022/01/04 04:49:32;;;;;;;2.90;1.10;;;10.80;55.80;;;;;;5033958;28;46441;-68
2022/01/04 04:51:59;;;;;;;4.03;1.67;;;10.90;56.10;;;;;;5021599;28;46334;-68
2022/01/04 04:54:27;;;;;;;2.60;1.33;;;10.90;55.80;;;;;;5021604;28;46333;-69
2022/01/04 04:56:55;;;;;;;2.10;1.30;;;10.90;55.80;;;;;;5019988;28;46489;-67
2022/01/04 04:59:21;;;;;;;2.10;1.10;;;10.90;55.80;;;;;;5023480;28;46656;-68
2022/01/04 05:01:47;;;;;;;1.90;1.17;;;10.90;55.90;;;;;;5020270;28;48884;-68
2022/01/04 05:04:12;;;;;;;4.47;1.50;;;11.00;56.00;;;;;;5020015;28;46555;-67
2022/01/04 05:06:38;;;;;;;4.00;1.10;;;11.00;56.00;;;;;;5020554;28;46405;-68
2022/01/04 05:09:04;;;;;;;1.60;0.97;;;11.00;56.00;;;;;;5021829;28;46429;-68
2022/01/04 05:11:32;;;;;;;5.03;1.20;;;11.00;55.90;;;;;;5021341;28;48819;-68
2022/01/04 05:13:57;;;;;;;2.43;1.27;;;11.00;56.00;;;;;;5021037;28;45769;-67
2022/01/04 05:16:23;;;;;;;1.63;1.17;;;10.90;57.40;;;;;;5021798;28;46632;-68
2022/01/04 05:18:49;;;;;;;3.90;1.27;;;10.80;56.40;;;;;;5021178;28;46397;-68
2022/01/04 05:21:14;;;;;;;4.33;1.50;;;10.80;56.60;;;;;;5020783;28;47944;-68
2022/01/04 05:23:40;;;;;;;3.23;1.00;;;10.80;56.70;;;;;;5022421;28;46307;-68
2022/01/04 05:26:06;;;;;;;3.20;1.10;;;10.80;56.90;;;;;;5021352;28;46519;-68
2022/01/04 05:28:32;;;;;;;2.87;1.17;;;10.70;57.10;;;;;;5021032;28;46626;-68
2022/01/04 05:30:58;;;;;;;1.70;0.97;;;10.70;57.30;;;;;;5021095;28;48828;-68
2022/01/04 05:33:24;;;;;;;4.23;1.70;;;10.60;57.50;;;;;;5021704;28;46384;-69
2022/01/04 05:35:49;;;;;;;2.73;1.20;;;10.60;57.80;;;;;;5021423;28;46413;-68
2022/01/04 05:38:15;;;;;;;2.97;1.07;;;10.50;57.80;;;;;;5021198;28;46425;-68
2022/01/04 05:40:42;;;;;;;3.97;1.27;;;10.60;58.00;;;;;;5009745;28;47739;-68
2022/01/04 05:43:11;;;;;;;3.53;1.20;;;10.50;57.80;;;;;;5021314;28;46513;-69
2022/01/04 05:45:36;;;;;;;1.90;1.10;;;10.50;58.00;;;;;;5019865;28;46389;-69
2022/01/04 05:48:02;;;;;;;8.83;1.30;;;10.40;58.40;;;;;;5022198;28;46363;-68
2022/01/04 05:50:30;;;;;;;3.20;1.10;;;10.40;59.80;;;;;;5020869;28;49074;-68
2022/01/04 05:52:55;;;;;;;2.50;1.30;;;10.30;58.80;;;;;;5027779;28;46344;-68
2022/01/04 05:55:21;;;;;;;1.90;1.10;;;10.30;59.20;;;;;;5021000;28;46394;-69
2022/01/04 05:57:48;;;;;;;5.23;1.00;;;10.30;59.40;;;;;;5020761;28;45830;-69
2022/01/04 06:00:14;;;;;;;3.40;1.30;;;10.20;59.60;;;;;;5020752;28;48710;-68
2022/01/04 06:02:40;;;;;;;3.10;1.20;;;10.10;60.00;;;;;;5020129;28;45844;-68
2022/01/04 06:05:06;;;;;;;2.60;1.40;;;10.10;60.00;;;;;;5022287;28;46472;-68
2022/01/04 06:07:32;;;;;;;2.07;1.17;;;10.00;60.20;;;;;;5020679;28;46587;-68
2022/01/04 06:09:58;;;;;;;1.90;0.93;;;10.00;60.40;;;;;;5020550;28;48969;-67
2022/01/04 06:14:52;;;;;;;4.37;1.33;;;9.90;61.70;;;;;;5021607;28;46303;-68
2022/01/04 06:17:19;;;;;;;2.83;1.10;;;9.90;61.70;;;;;;5020186;28;46320;-68
2022/01/04 06:19:45;;;;;;;5.30;1.50;;;9.90;62.00;;;;;;5022938;28;48707;-68
2022/01/04 06:22:11;;;;;;;2.00;1.07;;;9.90;62.30;;;;;;5023849;28;46361;-68
2022/01/04 06:24:37;;;;;;;4.13;1.40;;;9.90;62.40;;;;;;5024459;28;46425;-68
2022/01/04 06:27:10;;;;;;;3.47;1.10;;;9.80;62.40;;;;;;5026907;28;46396;-68
2022/01/04 06:29:38;;;;;;;1.87;1.07;;;9.80;62.50;;;;;;5024861;28;48031;-68
2022/01/04 06:32:05;;;;;;;2.73;1.10;;;9.80;62.50;;;;;;5036489;28;46405;-69
2022/01/04 06:34:31;;;;;;;4.20;1.40;;;9.90;62.80;;;;;;5024022;28;46473;-67
2022/01/04 06:36:57;;;;;;;5.63;1.53;;;9.90;62.80;;;;;;5023979;28;45866;-69
2022/01/04 06:39:23;;;;;;;2.73;1.10;;;9.90;62.70;;;;;;5023541;28;47950;-69
2022/01/04 06:41:48;;;;;;;3.17;1.33;;;9.90;62.90;;;;;;5023851;28;46322;-68
2022/01/04 06:44:14;;;;;;;2.47;1.10;;;9.90;63.00;;;;;;5024714;28;46382;-68
2022/01/04 06:46:45;;;;;;;1.87;1.00;;;9.90;63.20;;;;;;5023877;28;45933;-68
2022/01/04 06:49:12;;;;;;;2.30;1.10;;;9.90;63.70;;;;;;5023215;28;48056;-67
2022/01/04 06:51:38;;;;;;;6.17;1.40;;;9.80;63.70;;;;;;5023537;28;46307;-68
2022/01/04 06:54:04;;;;;;;2.20;1.37;;;9.80;63.90;;;;;;5023721;28;46407;-68
2022/01/04 06:56:30;;;;;;;2.17;1.20;;;9.80;64.10;;;;;;5023806;28;46382;-68
2022/01/04 06:58:59;;;;;;;4.67;1.33;;;9.80;64.60;;;;;;5022873;28;49123;-67
2022/01/04 07:01:24;;;;;;;4.10;1.40;;;9.80;64.70;;;;;;5023288;28;46501;-68
2022/01/04 07:03:50;;;;;;;2.63;1.33;;;9.80;65.20;;;;;;5025756;28;46493;-68
2022/01/04 07:06:16;;;;;;;3.80;1.10;;;9.80;65.20;;;;;;5040023;28;46470;-68
2022/01/04 07:08:42;;;;;;;2.80;1.10;;;9.90;65.30;;;;;;5022234;28;46560;-67
2022/01/04 07:11:08;;;;;;;3.37;1.10;;;9.80;65.20;;;;;;5024524;28;46461;-68
2022/01/04 07:13:34;;;;;;;2.47;1.63;;;9.90;65.30;;;;;;5022725;28;45884;-68
2022/01/04 07:15:59;;;;;;;2.00;1.10;;;9.90;65.30;;;;;;5023523;28;46402;-67
2022/01/04 07:18:25;;;;;;;3.50;1.17;;;9.90;65.30;;;;;;5022729;28;48116;-68
2022/01/04 07:20:51;;;;;;;2.90;1.37;;;9.80;65.60;;;;;;5023302;28;46364;-67
2022/01/04 07:23:17;;;;;;;3.90;1.40;;;9.80;66.10;;;;;;5023180;28;46475;-67
2022/01/04 07:25:42;;;;;;;5.30;1.40;;;9.80;66.30;;;;;;5026437;28;46645;-67
2022/01/04 07:28:08;;;;;;;4.10;1.50;;;9.80;66.70;;;;;;5026545;28;47940;-69
2022/01/04 07:30:37;;;;;;;2.30;1.10;;;9.70;66.90;;;;;;5026043;28;46445;-69
2022/01/04 07:33:02;;;;;;;2.67;1.20;;;9.70;67.40;;;;;;5026455;28;46418;-68
2022/01/04 07:35:28;;;;;;;1.70;1.40;;;9.60;67.70;;;;;;5027339;28;46233;-68
2022/01/04 07:37:54;;;;;;;4.73;1.50;;;9.60;67.90;;;;;;5022435;28;48615;-66
2022/01/04 07:40:21;;;;;;;3.80;1.40;;;9.60;67.70;;;;;;5024506;28;46385;-68
2022/01/04 07:42:47;;;;;;;3.50;1.50;;;9.60;67.80;;;;;;5022316;28;45883;-68
2022/01/04 07:45:14;;;;;;;2.00;1.10;;;9.60;67.90;;;;;;5022974;28;46087;-68
2022/01/04 07:47:43;;;;;;;5.23;1.70;;;9.60;68.10;;;;;;5022212;28;46547;-69
2022/01/04 07:50:10;;;;;;;1.70;1.20;;;9.60;68.50;;;;;;5026017;28;46342;-67
2022/01/04 07:52:35;;;;;;;3.23;1.37;;;9.60;68.30;;;;;;5022408;28;46396;-68
2022/01/04 07:55:02;;;;;;;4.10;1.30;;;9.60;69.70;;;;;;5022574;28;46529;-68
2022/01/04 07:57:28;;;;;;;4.87;3.00;;;9.60;68.40;;;;;;5021695;28;49485;-68
2022/01/04 07:59:54;;;;;;;3.43;1.50;;;9.70;68.70;;;;;;5023762;28;46354;-68
2022/01/04 08:02:20;;;;;;;2.53;1.50;;;9.70;68.60;;;;;;5022564;28;46461;-68
2022/01/04 08:04:46;;;;;;;2.77;1.20;;;9.80;68.50;;;;;;5022493;28;46318;-68
2022/01/04 08:07:11;;;;;;;2.13;1.37;;;9.80;68.60;;;;;;5022282;28;47860;-68
2022/01/04 08:09:37;;;;;;;1.63;1.03;;;9.90;68.80;;;;;;5020786;28;46310;-68
2022/01/04 08:12:04;;;;;;;5.10;1.40;;;9.90;68.90;;;;;;5022461;28;45770;-68
2022/01/04 08:14:30;;;;;;;3.57;1.10;;;10.00;67.90;;;;;;5022194;28;46654;-68
2022/01/04 08:16:56;;;;;;;1.97;1.10;;;10.10;67.90;;;;;;5022299;28;48118;-69
2022/01/04 08:19:22;;;;;;;2.33;1.30;;;10.10;67.90;;;;;;5021921;28;46344;-68
2022/01/04 08:21:48;;;;;;;2.13;1.00;;;10.20;68.20;;;;;;5022533;28;46489;-68
2022/01/04 08:24:13;;;;;;;2.07;1.00;;;10.30;68.10;;;;;;5021892;28;46604;-68
2022/01/04 08:26:39;;;;;;;2.60;1.40;;;10.40;68.10;;;;;;5021945;28;48141;-68
2022/01/04 08:29:05;;;;;;;2.23;1.20;;;10.50;68.20;;;;;;5023265;28;46408;-68
2022/01/04 08:31:31;;;;;;;1.83;1.10;;;10.60;68.40;;;;;;5022134;28;46425;-68
2022/01/04 08:33:57;;;;;;;2.00;1.30;;;10.80;68.50;;;;;;5022137;28;46088;-68
2022/01/04 08:36:26;;;;;;;3.63;1.43;;;10.80;68.30;;;;;;5021959;28;48035;-67
2022/01/04 08:38:52;;;;;;;2.80;1.30;;;10.90;68.60;;;;;;5019958;28;46299;-68
2022/01/04 08:41:18;;;;;;;3.20;2.20;;;10.90;68.70;;;;;;5020862;28;45870;-68
2022/01/04 08:43:43;;;;;;;5.97;2.10;;;11.00;69.10;;;;;;5021995;28;46437;-68
2022/01/04 08:46:15;;;;;;;8.03;2.27;;;11.00;69.00;;;;;;5021428;28;47913;-67
2022/01/04 08:48:43;;;;;;;10.60;2.83;;;11.10;68.90;;;;;;5021721;28;46339;-68
2022/01/04 08:51:09;;;;;;;2.30;1.50;;;11.10;68.80;;;;;;5020427;28;46354;-68
2022/01/04 08:53:35;;;;;;;3.43;1.50;;;11.20;68.80;;;;;;5022869;28;46441;-68
2022/01/04 08:56:02;;;;;;;2.83;1.90;;;11.30;68.80;;;;;;5021713;28;48137;-67
2022/01/04 08:58:31;;;;;;;3.17;1.33;;;11.40;68.90;;;;;;5021309;28;46343;-68
2022/01/04 09:00:57;;;;;;;1.73;0.90;;;11.40;68.90;;;;;;5013664;28;46389;-68
2022/01/04 09:03:24;;;;;;;8.00;1.13;;;11.50;68.90;;;;;;5021616;28;46489;-68
2022/01/04 09:05:50;;;;;;;2.47;1.80;;;11.60;68.90;;;;;;5021332;28;48670;-68
2022/01/04 09:08:15;;;;;;;3.60;2.60;;;11.60;68.70;;;;;;5020668;28;46486;-68
2022/01/04 09:10:41;;;;;;;1.40;0.90;;;11.70;68.80;;;;;;5021639;28;45843;-67
2022/01/04 09:13:15;;;;;;;1.30;0.90;;;11.90;68.80;;;;;;5020035;28;46521;-67
2022/01/04 09:20:54;;;;;;;2.07;1.10;;;12.40;68.20;;;;;;5020275;28;46114;-66
2022/01/04 09:23:21;;;;;;;1.27;0.80;;;12.50;67.70;;;;;;5021069;28;46641;-68
2022/01/04 09:25:53;;;;;;;1.57;0.90;;;12.60;67.70;;;;;;5021294;28;47887;-67
2022/01/04 09:28:21;;;;;;;2.83;0.90;;;12.70;67.80;;;;;;5034140;28;46504;-67
2022/01/04 09:30:50;;;;;;;1.40;0.90;;;12.80;67.60;;;;;;5021153;28;46440;-65
2022/01/04 09:33:16;;;;;;;1.70;0.90;;;12.80;67.50;;;;;;5020879;28;46309;-66
2022/01/04 09:35:43;;;;;;;2.50;0.90;;;12.80;67.80;;;;;;5021146;28;47786;-68
2022/01/04 09:38:09;;;;;;;1.23;0.73;;;12.80;67.90;;;;;;5020962;28;46338;-67
2022/01/04 09:40:36;;;;;;;5.30;1.00;;;12.80;68.10;;;;;;5021623;28;46454;-67
2022/01/04 09:43:06;;;;;;;1.80;0.90;;;12.80;67.90;;;;;;5021537;28;46370;-68
2022/01/04 09:45:32;;;;;;;2.47;0.83;;;12.90;67.70;;;;;;5020918;28;46636;-67
2022/01/04 09:47:58;;;;;;;5.07;0.93;;;12.90;67.30;;;;;;5012180;28;46279;-68
2022/01/04 09:50:24;;;;;;;3.73;0.90;;;13.00;67.20;;;;;;5020993;28;46430;-67
2022/01/04 09:52:51;;;;;;;1.30;0.73;;;13.10;67.30;;;;;;5020009;28;45886;-67
2022/01/04 09:55:17;;;;;;;1.20;0.70;;;13.30;67.00;;;;;;5020526;28;48113;-68
2022/01/04 09:57:46;;;;;;;2.27;1.00;;;13.40;66.40;;;;;;5020711;28;46456;-67
2022/01/04 10:00:16;;;;;;;1.30;0.80;;;13.50;65.70;;;;;;5012806;28;46393;-67
2022/01/04 10:02:50;;;;;;;1.53;0.90;;;13.70;65.30;;;;;;5020935;28;46346;-67
2022/01/04 10:05:27;;;;;;;1.73;0.83;;;13.80;64.80;;;;;;5019504;28;47803;-67
2022/01/04 10:08:05;;;;;;;1.57;0.90;;;13.90;64.30;;;;;;5023290;28;46329;-67
2022/01/04 10:10:32;;;;;;;1.47;0.90;;;13.90;63.70;;;;;;5020427;28;46453;-67
2022/01/04 10:13:04;;;;;;;1.30;0.80;;;13.80;63.90;;;;;;5035841;28;46469;-67
2022/01/04 10:15:45;;;;;;;1.30;0.80;;;13.60;63.80;;;;;;5035118;28;47721;-65
2022/01/04 10:18:13;;;;;;;2.40;0.87;;;13.60;63.80;;;;;;5036701;28;46314;-68
2022/01/04 10:20:44;;;;;;;1.50;0.90;;;13.50;63.80;;;;;;5020549;28;45960;-68
2022/01/04 10:23:16;;;;;;;2.47;0.87;;;13.50;63.40;;;;;;5019586;28;45917;-67
2022/01/04 10:25:42;;;;;;;2.40;0.87;;;13.50;63.40;;;;;;5035372;28;48654;-67
2022/01/04 10:28:09;;;;;;;2.30;1.00;;;13.50;63.30;;;;;;5021711;28;46383;-67
2022/01/04 10:30:38;;;;;;;2.07;0.80;;;13.50;63.00;;;;;;5020451;28;46346;-67
2022/01/04 10:33:20;;;;;;;2.40;1.10;;;13.50;62.80;;;;;;5020285;28;46292;-67
2022/01/04 10:35:49;;;;;;;1.80;0.90;;;13.60;62.30;;;;;;5028375;28;46590;-67
2022/01/04 10:38:19;;;;;;;2.90;1.00;;;13.70;62.00;;;;;;5024819;28;46370;-67
2022/01/04 10:41:20;;;;;;;2.20;0.93;;;13.70;61.70;;;;;;5022401;28;46233;-67
2022/01/04 10:43:50;;;;;;;2.90;1.10;;;13.70;61.20;;;;;;5018833;28;46636;-67
2022/01/04 10:46:18;;;;;;;2.00;0.93;;;13.70;61.10;;;;;;5019844;28;47958;-67
2022/01/04 10:48:47;;;;;;;1.67;0.90;;;13.70;61.20;;;;;;5020406;28;46453;-68
2022/01/04 10:51:17;;;;;;;1.93;1.10;;;13.70;61.00;;;;;;5020206;28;46374;-68
2022/01/04 10:54:00;;;;;;;2.37;1.00;;;13.70;60.80;;;;;;5020181;28;46001;-67
2022/01/04 10:56:31;;;;;;;3.77;2.10;;;13.80;60.40;;;;;;5029725;28;48899;-67
2022/01/04 10:58:58;;;;;;;2.50;1.30;;;13.90;60.20;;;;;;5020122;28;46383;-66
2022/01/04 11:01:28;;;;;;;1.50;0.90;;;14.10;60.00;;;;;;5020704;28;45701;-67
2022/01/04 11:04:00;;;;;;;4.20;1.30;;;14.20;59.70;;;;;;5021131;28;46363;-67
2022/01/04 11:06:33;;;;;;;4.40;2.87;;;14.10;59.70;;;;;;5023398;28;48183;-67
2022/01/04 11:08:59;;;;;;;2.57;1.73;;;14.00;59.70;;;;;;5037137;28;46385;-67
2022/01/04 11:11:26;;;;;;;1.80;1.10;;;14.20;59.60;;;;;;5023613;28;46615;-67
2022/01/04 11:13:52;;;;;;;1.97;1.30;;;14.20;59.20;;;;;;5024374;28;46291;-66
2022/01/04 11:16:24;;;;;;;1.93;0.87;;;14.30;59.00;;;;;;5022902;28;47884;-66
2022/01/04 11:18:52;;;;;;;4.00;1.30;;;14.30;58.70;;;;;;5023077;28;45749;-67
2022/01/04 11:21:43;;;;;;;1.50;0.90;;;14.30;58.60;;;;;;5022489;28;46373;-67
2022/01/04 11:24:12;;;;;;;2.47;1.27;;;14.20;58.50;;;;;;5011615;28;46359;-67
2022/01/04 11:26:44;;;;;;;2.00;0.97;;;14.10;58.80;;;;;;5022915;28;48060;-67
2022/01/04 11:29:10;;;;;;;1.73;1.00;;;14.00;58.80;;;;;;5023129;28;46294;-67
2022/01/04 11:31:51;;;;;;;2.33;1.27;;;14.00;59.10;;;;;;5023202;28;46460;-66
2022/01/04 11:34:35;;;;;;;1.83;1.03;;;14.00;58.90;;;;;;5023048;28;46326;-67
2022/01/04 11:37:02;;;;;;;2.13;1.30;;;14.10;58.50;;;;;;5022856;28;47841;-67
2022/01/04 11:39:36;;;;;;;1.70;1.00;;;14.20;58.40;;;;;;5022957;28;46331;-66
2022/01/04 11:42:10;;;;;;;1.60;1.00;;;14.30;58.10;;;;;;5022485;28;46469;-66
2022/01/04 11:44:47;;;;;;;1.80;1.00;;;14.40;59.10;;;;;;5031150;28;46512;-67
2022/01/04 11:47:17;;;;;;;1.50;1.00;;;14.40;57.50;;;;;;5021784;28;48816;-68
2022/01/04 11:50:16;;;;;;;2.00;1.20;;;14.40;57.60;;;;;;5022692;28;46656;-67
2022/01/04 11:52:48;;;;;;;2.70;1.00;;;14.30;57.70;;;;;;5021632;28;46616;-67
2022/01/04 11:55:25;;;;;;;2.80;1.10;;;14.10;58.30;;;;;;5022742;28;46484;-67
2022/01/04 11:57:56;;;;;;;2.93;1.30;;;13.90;58.50;;;;;;5021415;28;47932;-67
2022/01/04 12:00:28;;;;;;;2.27;1.07;;;13.90;58.80;;;;;;5012551;28;46251;-68
2022/01/04 12:03:11;;;;;;;2.20;1.40;;;13.90;58.60;;;;;;5024217;28;46469;-67
2022/01/04 12:06:01;;;;;;;2.77;1.00;;;14.10;58.50;;;;;;5017238;28;46382;-67
2022/01/04 12:08:44;;;;;;;2.00;1.13;;;14.40;57.90;;;;;;5040100;28;47097;-67
2022/01/04 12:11:39;;;;;;;5.33;1.07;;;14.60;57.30;;;;;;5023003;28;46318;-68
2022/01/04 12:14:21;;;;;;;3.20;1.47;;;14.60;56.70;;;;;;5021823;28;46349;-67
2022/01/04 12:17:03;;;;;;;3.23;1.00;;;14.60;56.80;;;;;;5022458;28;46367;-67
2022/01/04 12:19:59;;;;;;;2.73;1.30;;;14.60;56.80;;;;;;5033167;28;47797;-68
2022/01/04 12:22:32;;;;;;;4.57;1.10;;;14.60;56.60;;;;;;5008978;28;46628;-67
2022/01/04 12:25:08;;;;;;;2.07;1.00;;;14.70;56.00;;;;;;5022495;28;46585;-66
2022/01/04 12:27:34;;;;;;;4.20;1.40;;;14.80;57.20;;;;;;5021268;28;46449;-67
2022/01/04 12:30:25;;;;;;;2.57;1.20;;;14.90;56.10;;;;;;5022839;28;47887;-67
2022/01/04 12:32:51;;;;;;;3.93;1.47;;;15.10;56.30;;;;;;5016464;28;46389;-67
2022/01/04 12:35:17;;;;;;;2.60;1.30;;;15.10;56.20;;;;;;5022147;28;46390;-67
2022/01/04 12:37:43;;;;;;;3.13;1.50;;;15.10;55.90;;;;;;5022296;28;45977;-67
2022/01/04 12:40:09;;;;;;;2.70;1.60;;;15.20;55.70;;;;;;5023338;28;46343;-67
2022/01/04 12:42:39;;;;;;;2.27;1.20;;;15.40;55.20;;;;;;5021908;28;46465;-67
2022/01/04 12:45:05;;;;;;;3.70;1.40;;;15.50;54.30;;;;;;5037506;28;46523;-67
2022/01/04 12:47:35;;;;;;;3.50;1.40;;;15.60;54.20;;;;;;5022021;28;46251;-68
2022/01/04 12:50:02;;;;;;;3.57;1.30;;;15.60;54.30;;;;;;5022442;28;47963;-69
2022/01/04 12:52:28;;;;;;;3.63;1.70;;;15.50;54.40;;;;;;5021502;28;46323;-67
2022/01/04 12:54:56;;;;;;;2.50;1.40;;;15.50;54.30;;;;;;5021726;28;45766;-68
2022/01/04 12:57:26;;;;;;;4.23;1.50;;;15.50;54.10;;;;;;5020363;28;46678;-68
2022/01/04 12:59:55;;;;;;;3.83;1.40;;;15.60;53.80;;;;;;5035696;28;47383;-68
2022/01/04 13:02:28;;;;;;;3.23;1.40;;;15.60;53.60;;;;;;5021529;28;46418;-68